Nigde, Turkey

1:31 PM +03 on February 24, 2017 (GMT +0300)
Kapadokya | | Change Station

Elev 3100 ft 38.77 °N, 34.53 °E | Updated 41 minutes ago

Clear
Clear
59 °F
Feels Like 59 °F
N
8
Wind Variable Wind from South

Today
High -- | Low -- °F
--% Chance of Precip.
Yesterday
High -- | Low -- °F
Precip. -- in
Pressure 30.15 in
Visibility -9999.0 miles
Clouds
Dew Point 25 °F
Humidity 27%
Rainfall 0.00 in
Snow Depth Not available.
7:19 AM 6:29 PM
Waning Crescent, 5% visible
METAR LTAZ 240950Z 19007KT 140V240 CAVOK 15/M04 Q1021 RMK RWY29 19010KT 160V220
Pressure 30.15 in
Visibility -9999.0 miles
Clouds
Dew Point 25 °F
Humidity 27%
Rainfall 0.00 in
Snow Depth Not available.
7:19 AM 6:29 PM
Waning Crescent, 5% visible
METAR LTAZ 240950Z 19007KT 140V240 CAVOK 15/M04 Q1021 RMK RWY29 19010KT 160V220

Get Your Daily Forecast Email!

Thanks for signing up!

Be on the lookout for a verification email in your inbox.

You'll start receiving the daily forecast at 8 AM.

×

10-Day Weather Forecast

×

Almanac

Astronomy

Feb. 24, 2017 Rise Set
Actual Time
Civil Twilight
Nautical Twilight
Astronomical Twilight
Moon
Length of Visible Light
Length of Day
Tomorrow will be .
, % of the Moon is Illuminated

Today's Extremes

Country Highs Country Lows

Community

WunderPhotos

Upload Photos

1,962,540 photos uploaded!

WunderBlog® & News

Nearby

Air Quality

  Air Quality AQ Index Pollutant
Not available.

Snow Depth

Station Depth Elevation

Earthquake Activity

City Distance Mag. Time & Date
Minimum magnitude displayed is 2.5.

Coastal Water Temperatures

Place Temperature

Stations

Nearby Weather Stations

Station Location Temp. Windchill Dew Point Humidity Wind Precip. Elev Updated Type